sensor_id;sensor_type;location;lat;lon;timestamp;pressure;altitude;pressure_sealevel;temperature;humidity
61568;BME280;47462;59.172;17.196;2023-01-30T00:00:24;97900.06;;;4.83;85.49
61568;BME280;47462;59.172;17.196;2023-01-30T00:02:49;97940.81;;;5.13;85.69
61568;BME280;47462;59.172;17.196;2023-01-30T00:05:15;97909.56;;;5.00;85.19
61568;BME280;47462;59.172;17.196;2023-01-30T00:07:40;97880.69;;;4.92;85.42
61568;BME280;47462;59.172;17.196;2023-01-30T00:10:06;97864.53;;;4.89;85.38
61568;BME280;47462;59.172;17.196;2023-01-30T00:12:31;97833.75;;;4.84;85.25
61568;BME280;47462;59.172;17.196;2023-01-30T00:14:57;97828.81;;;4.79;85.39
61568;BME280;47462;59.172;17.196;2023-01-30T00:17:23;97859.69;;;4.98;85.02
61568;BME280;47462;59.172;17.196;2023-01-30T00:19:48;97873.69;;;4.94;85.16
61568;BME280;47462;59.172;17.196;2023-01-30T00:22:13;97897.84;;;5.11;85.27
61568;BME280;47462;59.172;17.196;2023-01-30T00:24:39;97919.81;;;5.20;84.90
61568;BME280;47462;59.172;17.196;2023-01-30T00:27:04;97903.53;;;5.17;85.04
61568;BME280;47462;59.172;17.196;2023-01-30T00:29:29;97844.16;;;4.82;85.13
61568;BME280;47462;59.172;17.196;2023-01-30T00:31:55;97899.28;;;5.16;84.75
61568;BME280;47462;59.172;17.196;2023-01-30T00:34:20;97875.25;;;5.14;84.62
61568;BME280;47462;59.172;17.196;2023-01-30T00:36:46;97852.03;;;4.97;84.67
61568;BME280;47462;59.172;17.196;2023-01-30T00:39:11;97881.25;;;5.15;84.44
61568;BME280;47462;59.172;17.196;2023-01-30T00:41:36;97873.59;;;5.13;84.58
61568;BME280;47462;59.172;17.196;2023-01-30T00:44:21;97872.00;;;5.11;84.27
61568;BME280;47462;59.172;17.196;2023-01-30T00:47:04;97837.19;;;5.00;84.08
61568;BME280;47462;59.172;17.196;2023-01-30T00:49:30;97818.03;;;5.05;83.95
61568;BME280;47462;59.172;17.196;2023-01-30T00:51:55;97724.63;;;4.45;84.14
61568;BME280;47462;59.172;17.196;2023-01-30T00:54:21;97789.09;;;4.98;84.00
61568;BME280;47462;59.172;17.196;2023-01-30T00:56:46;97775.41;;;4.96;84.02
61568;BME280;47462;59.172;17.196;2023-01-30T00:59:12;97777.91;;;4.97;84.11
61568;BME280;47462;59.172;17.196;2023-01-30T01:01:37;97790.50;;;5.04;84.04
61568;BME280;47462;59.172;17.196;2023-01-30T01:04:03;97770.06;;;4.99;84.27
61568;BME280;47462;59.172;17.196;2023-01-30T01:06:29;97791.28;;;5.06;84.24
61568;BME280;47462;59.172;17.196;2023-01-30T01:08:54;97771.00;;;4.98;84.57
61568;BME280;47462;59.172;17.196;2023-01-30T01:11:19;97741.47;;;4.86;84.52
61568;BME280;47462;59.172;17.196;2023-01-30T01:13:53;97756.00;;;5.05;84.05
61568;BME280;47462;59.172;17.196;2023-01-30T01:16:20;97713.63;;;4.91;83.93
61568;BME280;47462;59.172;17.196;2023-01-30T01:18:45;97752.47;;;4.90;84.23
61568;BME280;47462;59.172;17.196;2023-01-30T01:21:11;97707.63;;;4.75;84.32
61568;BME280;47462;59.172;17.196;2023-01-30T01:23:37;97751.72;;;4.88;84.25
61568;BME280;47462;59.172;17.196;2023-01-30T01:26:02;97748.81;;;4.94;84.53
61568;BME280;47462;59.172;17.196;2023-01-30T01:28:28;97734.06;;;4.96;84.48
61568;BME280;47462;59.172;17.196;2023-01-30T01:30:53;97735.72;;;4.97;84.36
61568;BME280;47462;59.172;17.196;2023-01-30T01:33:18;97745.81;;;5.02;84.44
61568;BME280;47462;59.172;17.196;2023-01-30T01:35:44;97734.81;;;4.98;84.49
61568;BME280;47462;59.172;17.196;2023-01-30T01:38:11;97705.28;;;4.70;85.05
61568;BME280;47462;59.172;17.196;2023-01-30T01:40:37;97702.47;;;4.75;85.47
61568;BME280;47462;59.172;17.196;2023-01-30T01:43:23;97711.13;;;4.74;86.10
61568;BME280;47462;59.172;17.196;2023-01-30T01:45:55;97696.09;;;4.64;87.15
61568;BME280;47462;59.172;17.196;2023-01-30T01:48:26;97705.22;;;4.72;87.31
61568;BME280;47462;59.172;17.196;2023-01-30T01:51:04;97697.53;;;4.70;87.44
61568;BME280;47462;59.172;17.196;2023-01-30T01:53:36;97691.28;;;4.74;87.89
61568;BME280;47462;59.172;17.196;2023-01-30T01:56:03;97674.28;;;4.70;87.78
61568;BME280;47462;59.172;17.196;2023-01-30T01:58:42;97643.91;;;4.42;88.28
61568;BME280;47462;59.172;17.196;2023-01-30T02:01:10;97623.09;;;4.29;88.48
61568;BME280;47462;59.172;17.196;2023-01-30T02:03:41;97657.31;;;4.49;88.64
61568;BME280;47462;59.172;17.196;2023-01-30T02:06:10;97657.53;;;4.61;88.82
61568;BME280;47462;59.172;17.196;2023-01-30T02:08:42;97463.66;;;3.53;88.63
61568;BME280;47462;59.172;17.196;2023-01-30T02:14:21;97667.03;;;4.61;88.68
61568;BME280;47462;59.172;17.196;2023-01-30T02:16:47;97665.28;;;4.61;89.04
61568;BME280;47462;59.172;17.196;2023-01-30T02:33:53;97604.84;;;4.48;88.06
61568;BME280;47462;59.172;17.196;2023-01-30T02:42:04;97608.75;;;4.39;87.64
61568;BME280;47462;59.172;17.196;2023-01-30T02:44:51;97610.91;;;4.31;87.73
61568;BME280;47462;59.172;17.196;2023-01-30T02:47:33;97608.16;;;4.34;87.33
61568;BME280;47462;59.172;17.196;2023-01-30T02:50:20;97596.91;;;4.19;86.70
61568;BME280;47462;59.172;17.196;2023-01-30T02:52:47;97571.06;;;4.03;86.88
61568;BME280;47462;59.172;17.196;2023-01-30T02:55:25;97577.34;;;4.15;86.02
61568;BME280;47462;59.172;17.196;2023-01-30T02:57:50;97620.00;;;4.38;86.21
61568;BME280;47462;59.172;17.196;2023-01-30T03:00:43;97606.09;;;4.25;86.04
61568;BME280;47462;59.172;17.196;2023-01-30T03:14:17;97566.41;;;3.94;85.08
61568;BME280;47462;59.172;17.196;2023-01-30T03:16:43;97588.06;;;4.07;85.32
61568;BME280;47462;59.172;17.196;2023-01-30T03:19:11;97568.19;;;4.09;84.32
61568;BME280;47462;59.172;17.196;2023-01-30T03:21:44;97583.34;;;4.16;83.69
61568;BME280;47462;59.172;17.196;2023-01-30T03:24:13;97565.91;;;4.03;83.44
61568;BME280;47462;59.172;17.196;2023-01-30T03:26:46;97589.31;;;4.00;83.46
61568;BME280;47462;59.172;17.196;2023-01-30T03:29:13;97580.50;;;4.04;83.57
61568;BME280;47462;59.172;17.196;2023-01-30T03:31:38;97559.31;;;3.82;83.09
61568;BME280;47462;59.172;17.196;2023-01-30T03:34:04;97537.72;;;3.83;82.87
61568;BME280;47462;59.172;17.196;2023-01-30T03:36:29;97586.63;;;4.02;82.41
61568;BME280;47462;59.172;17.196;2023-01-30T03:38:55;97559.88;;;3.87;81.78
61568;BME280;47462;59.172;17.196;2023-01-30T03:41:20;97542.63;;;3.71;81.48
61568;BME280;47462;59.172;17.196;2023-01-30T03:43:45;97580.44;;;3.88;81.41
61568;BME280;47462;59.172;17.196;2023-01-30T03:46:11;97566.25;;;3.80;80.94
61568;BME280;47462;59.172;17.196;2023-01-30T03:48:36;97564.88;;;3.90;80.76
61568;BME280;47462;59.172;17.196;2023-01-30T03:51:02;97570.13;;;3.88;80.04
61568;BME280;47462;59.172;17.196;2023-01-30T03:53:27;97561.72;;;3.85;80.12
61568;BME280;47462;59.172;17.196;2023-01-30T03:55:53;97542.78;;;3.68;79.61
61568;BME280;47462;59.172;17.196;2023-01-30T03:58:18;97440.47;;;3.02;79.41
61568;BME280;47462;59.172;17.196;2023-01-30T04:00:43;97561.34;;;3.75;79.46
61568;BME280;47462;59.172;17.196;2023-01-30T04:03:09;97562.75;;;3.65;78.77
61568;BME280;47462;59.172;17.196;2023-01-30T04:05:34;97554.16;;;3.64;79.10
61568;BME280;47462;59.172;17.196;2023-01-30T04:08:00;97569.56;;;3.66;78.83
61568;BME280;47462;59.172;17.196;2023-01-30T04:10:26;97574.13;;;3.61;78.66
61568;BME280;47462;59.172;17.196;2023-01-30T04:12:51;97558.44;;;3.48;78.94
61568;BME280;47462;59.172;17.196;2023-01-30T04:15:17;97518.56;;;3.20;78.63
61568;BME280;47462;59.172;17.196;2023-01-30T04:17:42;97542.13;;;3.47;78.33
61568;BME280;47462;59.172;17.196;2023-01-30T04:20:09;97548.53;;;3.40;78.37
61568;BME280;47462;59.172;17.196;2023-01-30T04:22:34;97509.41;;;3.14;77.81
61568;BME280;47462;59.172;17.196;2023-01-30T04:25:00;97534.81;;;3.22;76.98
61568;BME280;47462;59.172;17.196;2023-01-30T04:27:26;97553.97;;;3.34;77.09
61568;BME280;47462;59.172;17.196;2023-01-30T04:29:51;97480.69;;;2.87;76.88
61568;BME280;47462;59.172;17.196;2023-01-30T04:32:17;97546.53;;;3.28;76.52
61568;BME280;47462;59.172;17.196;2023-01-30T04:34:42;97531.31;;;3.06;76.00
61568;BME280;47462;59.172;17.196;2023-01-30T04:37:10;97567.94;;;3.30;75.20
61568;BME280;47462;59.172;17.196;2023-01-30T04:39:35;97517.50;;;3.42;73.04
61568;BME280;47462;59.172;17.196;2023-01-30T04:42:01;97341.75;;;2.33;72.59
61568;BME280;47462;59.172;17.196;2023-01-30T04:44:26;97467.66;;;3.08;72.42
61568;BME280;47462;59.172;17.196;2023-01-30T04:46:52;97521.22;;;3.36;72.83
61568;BME280;47462;59.172;17.196;2023-01-30T04:49:18;97488.56;;;3.19;72.46
61568;BME280;47462;59.172;17.196;2023-01-30T04:51:43;97503.81;;;3.24;73.10
61568;BME280;47462;59.172;17.196;2023-01-30T04:54:09;97481.00;;;2.98;72.81
61568;BME280;47462;59.172;17.196;2023-01-30T04:56:34;97489.09;;;3.08;72.67
61568;BME280;47462;59.172;17.196;2023-01-30T04:58:59;97499.03;;;3.16;72.10
61568;BME280;47462;59.172;17.196;2023-01-30T05:01:33;97505.16;;;3.13;71.25
61568;BME280;47462;59.172;17.196;2023-01-30T05:03:59;97525.56;;;3.18;70.94
61568;BME280;47462;59.172;17.196;2023-01-30T05:06:26;97488.88;;;3.13;70.40
61568;BME280;47462;59.172;17.196;2023-01-30T05:08:53;97421.91;;;2.78;70.52
61568;BME280;47462;59.172;17.196;2023-01-30T05:11:19;97474.03;;;3.00;70.79
61568;BME280;47462;59.172;17.196;2023-01-30T05:13:45;97466.22;;;3.02;69.69
61568;BME280;47462;59.172;17.196;2023-01-30T05:16:11;97498.78;;;3.03;69.43
61568;BME280;47462;59.172;17.196;2023-01-30T05:18:37;97465.53;;;2.81;69.60
61568;BME280;47462;59.172;17.196;2023-01-30T05:21:08;97447.22;;;2.70;69.43
61568;BME280;47462;59.172;17.196;2023-01-30T05:23:34;97498.56;;;3.08;69.66
61568;BME280;47462;59.172;17.196;2023-01-30T05:25:59;97505.78;;;3.01;69.41
61568;BME280;47462;59.172;17.196;2023-01-30T05:28:25;97511.75;;;3.01;69.40
61568;BME280;47462;59.172;17.196;2023-01-30T05:30:50;97451.53;;;2.69;68.90
61568;BME280;47462;59.172;17.196;2023-01-30T05:33:16;97447.81;;;2.75;69.16
61568;BME280;47462;59.172;17.196;2023-01-30T05:35:46;97487.06;;;2.97;69.16
61568;BME280;47462;59.172;17.196;2023-01-30T05:38:12;97490.94;;;2.89;69.73
61568;BME280;47462;59.172;17.196;2023-01-30T05:40:37;97424.47;;;2.43;69.88
61568;BME280;47462;59.172;17.196;2023-01-30T05:43:02;97459.78;;;2.58;68.65
61568;BME280;47462;59.172;17.196;2023-01-30T05:45:27;97459.63;;;2.61;68.83
61568;BME280;47462;59.172;17.196;2023-01-30T05:47:53;97490.31;;;2.83;68.60
61568;BME280;47462;59.172;17.196;2023-01-30T05:50:18;97481.00;;;2.81;68.18
61568;BME280;47462;59.172;17.196;2023-01-30T05:52:44;97430.16;;;2.49;68.32
61568;BME280;47462;59.172;17.196;2023-01-30T05:55:09;97453.88;;;2.56;68.33
61568;BME280;47462;59.172;17.196;2023-01-30T05:57:34;97473.38;;;2.60;67.92
61568;BME280;47462;59.172;17.196;2023-01-30T06:00:00;97498.56;;;2.73;68.19
61568;BME280;47462;59.172;17.196;2023-01-30T06:02:25;97491.47;;;2.59;68.25
61568;BME280;47462;59.172;17.196;2023-01-30T06:04:51;97502.94;;;2.71;67.66
61568;BME280;47462;59.172;17.196;2023-01-30T06:07:16;97505.75;;;2.66;68.05
61568;BME280;47462;59.172;17.196;2023-01-30T06:09:41;97529.19;;;2.79;68.28
61568;BME280;47462;59.172;17.196;2023-01-30T06:12:07;97463.16;;;2.41;68.03
61568;BME280;47462;59.172;17.196;2023-01-30T06:14:32;97534.31;;;2.79;67.98
61568;BME280;47462;59.172;17.196;2023-01-30T06:16:58;97505.28;;;2.75;67.21
61568;BME280;47462;59.172;17.196;2023-01-30T06:19:23;97521.31;;;2.82;66.93
61568;BME280;47462;59.172;17.196;2023-01-30T06:21:48;97463.75;;;2.46;66.64
61568;BME280;47462;59.172;17.196;2023-01-30T06:24:14;97467.72;;;2.54;66.81
61568;BME280;47462;59.172;17.196;2023-01-30T06:26:39;97517.72;;;2.84;67.07
61568;BME280;47462;59.172;17.196;2023-01-30T06:29:04;97485.06;;;2.67;67.14
61568;BME280;47462;59.172;17.196;2023-01-30T06:31:30;97419.53;;;2.21;67.01
61568;BME280;47462;59.172;17.196;2023-01-30T06:33:55;97470.97;;;2.57;67.02
61568;BME280;47462;59.172;17.196;2023-01-30T06:36:20;97508.16;;;2.69;67.53
61568;BME280;47462;59.172;17.196;2023-01-30T06:38:46;97532.94;;;2.72;67.53
61568;BME280;47462;59.172;17.196;2023-01-30T06:41:12;97480.41;;;2.39;67.17
61568;BME280;47462;59.172;17.196;2023-01-30T06:43:38;97408.53;;;2.00;67.60
61568;BME280;47462;59.172;17.196;2023-01-30T06:46:03;97507.78;;;2.59;68.11
61568;BME280;47462;59.172;17.196;2023-01-30T06:48:29;97508.25;;;2.67;68.01
61568;BME280;47462;59.172;17.196;2023-01-30T06:50:54;97525.06;;;2.75;68.40
61568;BME280;47462;59.172;17.196;2023-01-30T06:53:20;97516.34;;;2.60;68.44
61568;BME280;47462;59.172;17.196;2023-01-30T06:55:49;97509.31;;;2.63;68.30
61568;BME280;47462;59.172;17.196;2023-01-30T06:58:14;97523.09;;;2.80;68.24
61568;BME280;47462;59.172;17.196;2023-01-30T07:00:41;97508.88;;;2.73;67.57
61568;BME280;47462;59.172;17.196;2023-01-30T07:03:14;97523.88;;;2.82;67.24
61568;BME280;47462;59.172;17.196;2023-01-30T07:05:41;97523.44;;;2.91;67.13
61568;BME280;47462;59.172;17.196;2023-01-30T07:08:07;97489.78;;;2.77;67.76
61568;BME280;47462;59.172;17.196;2023-01-30T07:10:33;97508.28;;;2.85;67.86
61568;BME280;47462;59.172;17.196;2023-01-30T07:13:00;97464.78;;;2.61;67.26
61568;BME280;47462;59.172;17.196;2023-01-30T07:15:25;97521.47;;;2.96;67.52
61568;BME280;47462;59.172;17.196;2023-01-30T07:17:51;97529.63;;;3.04;67.66
61568;BME280;47462;59.172;17.196;2023-01-30T07:20:16;97524.63;;;3.01;67.67
61568;BME280;47462;59.172;17.196;2023-01-30T07:22:42;97536.00;;;3.15;67.65
61568;BME280;47462;59.172;17.196;2023-01-30T07:25:12;97470.84;;;2.78;67.01
61568;BME280;47462;59.172;17.196;2023-01-30T07:27:38;97482.59;;;2.83;67.26
61568;BME280;47462;59.172;17.196;2023-01-30T07:30:05;97495.09;;;2.91;67.30
61568;BME280;47462;59.172;17.196;2023-01-30T07:32:31;97535.03;;;3.17;67.53
61568;BME280;47462;59.172;17.196;2023-01-30T07:34:56;97497.69;;;2.91;67.65
61568;BME280;47462;59.172;17.196;2023-01-30T07:37:22;97533.50;;;3.13;67.99
61568;BME280;47462;59.172;17.196;2023-01-30T07:39:47;97479.03;;;2.68;67.81
61568;BME280;47462;59.172;17.196;2023-01-30T07:42:13;97506.91;;;2.78;67.78
61568;BME280;47462;59.172;17.196;2023-01-30T07:44:38;97500.69;;;2.82;67.88
61568;BME280;47462;59.172;17.196;2023-01-30T07:47:03;97539.78;;;3.08;66.96
61568;BME280;47462;59.172;17.196;2023-01-30T07:49:29;97492.38;;;2.94;67.28
61568;BME280;47462;59.172;17.196;2023-01-30T07:51:54;97511.59;;;3.04;67.57
61568;BME280;47462;59.172;17.196;2023-01-30T07:54:20;97528.03;;;3.19;66.73
61568;BME280;47462;59.172;17.196;2023-01-30T07:56:45;97493.88;;;2.98;66.41
61568;BME280;47462;59.172;17.196;2023-01-30T07:59:10;97540.47;;;3.29;66.79
61568;BME280;47462;59.172;17.196;2023-01-30T08:01:36;97490.59;;;3.12;66.80
61568;BME280;47462;59.172;17.196;2023-01-30T08:04:01;97506.31;;;3.25;67.00
61568;BME280;47462;59.172;17.196;2023-01-30T08:06:27;97451.25;;;2.93;66.82
61568;BME280;47462;59.172;17.196;2023-01-30T08:08:53;97527.03;;;3.39;67.05
61568;BME280;47462;59.172;17.196;2023-01-30T08:11:18;97498.25;;;3.14;66.98
61568;BME280;47462;59.172;17.196;2023-01-30T08:13:44;97403.13;;;2.58;67.17
61568;BME280;47462;59.172;17.196;2023-01-30T08:16:09;97476.31;;;3.07;67.72
61568;BME280;47462;59.172;17.196;2023-01-30T08:18:34;97528.56;;;3.26;67.81
61568;BME280;47462;59.172;17.196;2023-01-30T08:21:02;97515.41;;;3.15;67.32
61568;BME280;47462;59.172;17.196;2023-01-30T08:23:28;97497.94;;;3.20;67.41
61568;BME280;47462;59.172;17.196;2023-01-30T08:25:59;97509.47;;;3.30;67.33
61568;BME280;47462;59.172;17.196;2023-01-30T08:28:25;97509.63;;;3.27;67.18
61568;BME280;47462;59.172;17.196;2023-01-30T08:30:50;97496.75;;;3.10;67.28
61568;BME280;47462;59.172;17.196;2023-01-30T08:33:17;97533.44;;;3.32;65.83
61568;BME280;47462;59.172;17.196;2023-01-30T08:35:43;97482.34;;;3.06;67.08
61568;BME280;47462;59.172;17.196;2023-01-30T08:38:09;97529.13;;;3.33;66.99
61568;BME280;47462;59.172;17.196;2023-01-30T08:40:34;97537.34;;;3.39;67.39
61568;BME280;47462;59.172;17.196;2023-01-30T08:43:00;97510.31;;;3.31;67.37
61568;BME280;47462;59.172;17.196;2023-01-30T08:45:26;97518.34;;;3.42;67.55
61568;BME280;47462;59.172;17.196;2023-01-30T08:47:51;97483.56;;;3.16;67.55
61568;BME280;47462;59.172;17.196;2023-01-30T08:50:17;97489.78;;;3.29;66.62
61568;BME280;47462;59.172;17.196;2023-01-30T08:52:42;97509.94;;;3.38;67.18
61568;BME280;47462;59.172;17.196;2023-01-30T08:55:08;97480.84;;;3.19;67.21
61568;BME280;47462;59.172;17.196;2023-01-30T08:57:34;97505.59;;;3.39;66.68
61568;BME280;47462;59.172;17.196;2023-01-30T08:59:59;97495.22;;;3.41;66.19
61568;BME280;47462;59.172;17.196;2023-01-30T09:02:25;97515.44;;;3.48;66.52
61568;BME280;47462;59.172;17.196;2023-01-30T09:04:51;97453.56;;;3.15;65.64
61568;BME280;47462;59.172;17.196;2023-01-30T09:07:16;97508.69;;;3.46;65.37
61568;BME280;47462;59.172;17.196;2023-01-30T09:09:41;97508.34;;;3.36;65.83
61568;BME280;47462;59.172;17.196;2023-01-30T09:12:07;97513.34;;;3.39;65.61
61568;BME280;47462;59.172;17.196;2023-01-30T09:14:32;97525.69;;;3.50;65.43
61568;BME280;47462;59.172;17.196;2023-01-30T09:16:57;97507.44;;;3.37;65.67
61568;BME280;47462;59.172;17.196;2023-01-30T09:19:27;97535.41;;;3.45;65.34
61568;BME280;47462;59.172;17.196;2023-01-30T09:21:53;97520.69;;;3.47;66.04
61568;BME280;47462;59.172;17.196;2023-01-30T09:24:20;97518.84;;;3.49;65.95
61568;BME280;47462;59.172;17.196;2023-01-30T09:26:51;97503.69;;;3.43;64.39
61568;BME280;47462;59.172;17.196;2023-01-30T09:29:16;97512.47;;;3.56;65.52
61568;BME280;47462;59.172;17.196;2023-01-30T09:31:41;97503.75;;;3.59;65.68
61568;BME280;47462;59.172;17.196;2023-01-30T09:34:07;97530.38;;;3.59;64.92
61568;BME280;47462;59.172;17.196;2023-01-30T09:36:32;97518.22;;;3.61;65.09
61568;BME280;47462;59.172;17.196;2023-01-30T09:38:58;97404.50;;;3.00;65.02
61568;BME280;47462;59.172;17.196;2023-01-30T09:41:40;97516.69;;;3.90;65.05
61568;BME280;47462;59.172;17.196;2023-01-30T09:47:09;97518.81;;;4.16;63.77
61568;BME280;47462;59.172;17.196;2023-01-30T10:28:04;97509.56;;;4.11;62.73
61568;BME280;47462;59.172;17.196;2023-01-30T10:30:32;97489.84;;;4.10;62.38
61568;BME280;47462;59.172;17.196;2023-01-30T10:33:05;97477.53;;;4.00;61.65
61568;BME280;47462;59.172;17.196;2023-01-30T10:35:38;97499.19;;;4.29;61.29
61568;BME280;47462;59.172;17.196;2023-01-30T10:38:16;97505.66;;;4.36;61.91
61568;BME280;47462;59.172;17.196;2023-01-30T10:40:51;97499.84;;;4.33;61.40
61568;BME280;47462;59.172;17.196;2023-01-30T10:43:23;97395.78;;;3.68;60.86
61568;BME280;47462;59.172;17.196;2023-01-30T10:51:59;97448.88;;;4.20;60.58
61568;BME280;47462;59.172;17.196;2023-01-30T10:54:23;97491.31;;;4.46;60.43
61568;BME280;47462;59.172;17.196;2023-01-30T10:59:59;97440.38;;;4.02;60.63
61568;BME280;47462;59.172;17.196;2023-01-30T11:03:01;97496.66;;;4.43;60.69
61568;BME280;47462;59.172;17.196;2023-01-30T11:05:46;97483.75;;;4.43;60.29
61568;BME280;47462;59.172;17.196;2023-01-30T11:08:25;97477.50;;;4.47;59.38
61568;BME280;47462;59.172;17.196;2023-01-30T11:10:51;97488.66;;;4.48;59.21
61568;BME280;47462;59.172;17.196;2023-01-30T11:15:45;97494.47;;;4.52;60.41
61568;BME280;47462;59.172;17.196;2023-01-30T11:18:12;97502.47;;;4.47;60.01
61568;BME280;47462;59.172;17.196;2023-01-30T11:20:39;97455.19;;;4.15;59.68
61568;BME280;47462;59.172;17.196;2023-01-30T11:23:08;97463.38;;;4.23;59.69
61568;BME280;47462;59.172;17.196;2023-01-30T11:25:49;97485.59;;;4.41;59.05
61568;BME280;47462;59.172;17.196;2023-01-30T11:28:15;97493.00;;;4.47;58.86
61568;BME280;47462;59.172;17.196;2023-01-30T11:30:52;97455.16;;;4.46;58.59
61568;BME280;47462;59.172;17.196;2023-01-30T11:33:19;97501.25;;;4.85;57.89
61568;BME280;47462;59.172;17.196;2023-01-30T11:35:56;97495.09;;;4.87;58.50
61568;BME280;47462;59.172;17.196;2023-01-30T11:38:25;97507.59;;;4.79;59.29
61568;BME280;47462;59.172;17.196;2023-01-30T11:41:21;97564.47;;;4.63;61.38
61568;BME280;47462;59.172;17.196;2023-01-30T11:43:46;97542.97;;;4.31;62.25
61568;BME280;47462;59.172;17.196;2023-01-30T11:46:16;97526.97;;;4.24;62.87
61568;BME280;47462;59.172;17.196;2023-01-30T11:48:53;97533.72;;;4.26;63.56
61568;BME280;47462;59.172;17.196;2023-01-30T11:51:20;97548.88;;;4.17;64.58
61568;BME280;47462;59.172;17.196;2023-01-30T11:54:00;97521.63;;;3.95;63.07
61568;BME280;47462;59.172;17.196;2023-01-30T11:56:35;97517.06;;;4.00;63.87
61568;BME280;47462;59.172;17.196;2023-01-30T11:59:22;97510.78;;;3.88;64.08
61568;BME280;47462;59.172;17.196;2023-01-30T12:01:48;97526.56;;;4.00;63.26
61568;BME280;47462;59.172;17.196;2023-01-30T12:04:14;97516.59;;;3.92;63.08
61568;BME280;47462;59.172;17.196;2023-01-30T12:06:42;97509.47;;;3.97;62.32
61568;BME280;47462;59.172;17.196;2023-01-30T12:09:43;97525.81;;;4.14;62.79
61568;BME280;47462;59.172;17.196;2023-01-30T12:15:00;97515.81;;;4.07;63.39
61568;BME280;47462;59.172;17.196;2023-01-30T12:17:44;97395.09;;;3.33;62.90
61568;BME280;47462;59.172;17.196;2023-01-30T12:23:35;97530.28;;;4.10;60.67
61568;BME280;47462;59.172;17.196;2023-01-30T12:26:13;97520.50;;;4.17;59.70
61568;BME280;47462;59.172;17.196;2023-01-30T12:31:31;97521.81;;;4.40;59.36
61568;BME280;47462;59.172;17.196;2023-01-30T12:34:01;97501.16;;;4.40;60.02
61568;BME280;47462;59.172;17.196;2023-01-30T12:45:39;97524.84;;;4.78;57.01
61568;BME280;47462;59.172;17.196;2023-01-30T12:50:22;97531.19;;;4.73;57.67
61568;BME280;47462;59.172;17.196;2023-01-30T12:58:45;97552.38;;;4.79;57.52
61568;BME280;47462;59.172;17.196;2023-01-30T13:01:38;97552.19;;;4.82;57.17
61568;BME280;47462;59.172;17.196;2023-01-30T13:06:44;97560.00;;;4.97;57.34
61568;BME280;47462;59.172;17.196;2023-01-30T13:09:34;97583.59;;;4.91;57.14
61568;BME280;47462;59.172;17.196;2023-01-30T13:12:15;97570.03;;;4.71;57.38
61568;BME280;47462;59.172;17.196;2023-01-30T13:17:29;97609.78;;;4.85;58.46
61568;BME280;47462;59.172;17.196;2023-01-30T13:27:33;97610.94;;;4.79;58.17
61568;BME280;47462;59.172;17.196;2023-01-30T13:30:03;97603.78;;;4.68;58.41
61568;BME280;47462;59.172;17.196;2023-01-30T13:32:37;97619.03;;;4.73;58.33
61568;BME280;47462;59.172;17.196;2023-01-30T13:35:14;97543.44;;;4.05;59.11
61568;BME280;47462;59.172;17.196;2023-01-30T13:37:41;97633.69;;;4.72;59.22
61568;BME280;47462;59.172;17.196;2023-01-30T13:40:20;97637.28;;;4.70;59.26
61568;BME280;47462;59.172;17.196;2023-01-30T13:42:57;97619.78;;;4.59;59.47
61568;BME280;47462;59.172;17.196;2023-01-30T13:45:27;97616.84;;;4.65;59.80
61568;BME280;47462;59.172;17.196;2023-01-30T13:53:24;97639.84;;;4.54;61.15
61568;BME280;47462;59.172;17.196;2023-01-30T13:56:22;97657.59;;;4.60;61.55
61568;BME280;47462;59.172;17.196;2023-01-30T13:58:53;97649.41;;;4.52;61.68
61568;BME280;47462;59.172;17.196;2023-01-30T14:01:22;97651.25;;;4.50;61.45
61568;BME280;47462;59.172;17.196;2023-01-30T14:03:48;97681.25;;;4.68;61.09
61568;BME280;47462;59.172;17.196;2023-01-30T14:06:35;97688.13;;;4.69;61.60
61568;BME280;47462;59.172;17.196;2023-01-30T14:09:04;97661.66;;;4.48;61.39
61568;BME280;47462;59.172;17.196;2023-01-30T14:11:46;97696.09;;;4.64;61.45
61568;BME280;47462;59.172;17.196;2023-01-30T14:14:25;97686.75;;;4.62;61.32
61568;BME280;47462;59.172;17.196;2023-01-30T14:16:53;97700.94;;;4.71;61.74
61568;BME280;47462;59.172;17.196;2023-01-30T14:21:53;97704.09;;;4.60;62.09
61568;BME280;47462;59.172;17.196;2023-01-30T14:24:21;97728.09;;;4.62;62.26
61568;BME280;47462;59.172;17.196;2023-01-30T14:35:14;97669.72;;;4.42;60.97
61568;BME280;47462;59.172;17.196;2023-01-30T14:40:02;97742.47;;;4.83;61.89
61568;BME280;47462;59.172;17.196;2023-01-30T14:45:52;97737.28;;;4.83;61.07
61568;BME280;47462;59.172;17.196;2023-01-30T14:51:22;97776.75;;;4.87;62.04
61568;BME280;47462;59.172;17.196;2023-01-30T14:53:57;97787.25;;;4.84;61.98
61568;BME280;47462;59.172;17.196;2023-01-30T14:56:43;97801.31;;;4.78;62.43
61568;BME280;47462;59.172;17.196;2023-01-30T15:04:46;97813.63;;;4.73;61.25
61568;BME280;47462;59.172;17.196;2023-01-30T15:10:00;97803.63;;;4.50;61.67
61568;BME280;47462;59.172;17.196;2023-01-30T15:15:15;97851.94;;;4.47;62.23
61568;BME280;47462;59.172;17.196;2023-01-30T15:18:04;97838.94;;;4.32;60.69
61568;BME280;47462;59.172;17.196;2023-01-30T15:32:13;97900.69;;;4.54;59.85
61568;BME280;47462;59.172;17.196;2023-01-30T15:34:48;97905.75;;;4.38;59.83
61568;BME280;47462;59.172;17.196;2023-01-30T15:37:39;97917.75;;;4.39;59.67
61568;BME280;47462;59.172;17.196;2023-01-30T15:50:47;97951.47;;;4.36;58.54
61568;BME280;47462;59.172;17.196;2023-01-30T15:53:14;97958.09;;;4.41;57.87
61568;BME280;47462;59.172;17.196;2023-01-30T15:55:41;97954.97;;;4.35;58.14
61568;BME280;47462;59.172;17.196;2023-01-30T15:58:16;97959.50;;;4.29;58.40
61568;BME280;47462;59.172;17.196;2023-01-30T16:00:52;97983.78;;;4.44;57.96
61568;BME280;47462;59.172;17.196;2023-01-30T16:03:31;98001.06;;;4.42;57.73
61568;BME280;47462;59.172;17.196;2023-01-30T16:05:59;98002.91;;;4.40;57.48
61568;BME280;47462;59.172;17.196;2023-01-30T16:08:27;97999.19;;;4.46;57.85
61568;BME280;47462;59.172;17.196;2023-01-30T16:10:53;97956.19;;;4.08;58.31
61568;BME280;47462;59.172;17.196;2023-01-30T16:13:19;97981.56;;;4.18;58.20